Home > Products > Valid Products > TAF

000
FTUS43 KTOP 251700
TAFTOP
TAF
KTOP 251723Z 2518/2618 08006KT P6SM SKC
     FM260500 10005KT 5SM BR SCT015
     FM260800 11007KT 2SM BR BKN008
     FM261500 13009KT P6SM FEW015=



000
FTUS43 KTOP 251400 AAA
TAFTOP
TAF AMD
KTOP 251445Z 2515/2612 00000KT 1/4SM FG VV002
      TEMPO 2515/2516 3SM BR SCT002
     FM251600 06004KT P6SM SKC
      TEMPO 2516/2517 5SM BR=



000
FTUS43 KTOP 251100 AAA
TAFTOP
TAF AMD
KTOP 251145Z 2512/2612 00000KT 1/4SM FG VV001
      TEMPO 2512/2514 2SM BR BCFG SKC
     FM251500 06004KT P6SM SKC=



000
FTUS43 KTOP 251100 AAA
TAFTOP
TAF AMD
KTOP 251145Z 2512/2612 00000KT 1/4SM FG VV001
      TEMPO 2512/2514 2SM BR BCFG SKC
     FM251500 06004KT P6SM SKC=



000
FTUS43 KTOP 251100
TAFTOP
TAF
KTOP 251120Z 2512/2612 00000KT 2SM BR BCFG SKC
      TEMPO 2512/2514 1/4SM FG VV001
     FM251500 06004KT P6SM SKC=



000
FTUS43 KTOP 251100
TAFTOP
TAF
KTOP 251120Z 2512/2612 00000KT 2SM BR BCFG SKC
      TEMPO 2512/2514 1/4SM FG VV001
     FM251500 06004KT P6SM SKC=



000
FTUS43 KTOP 250800 AAA
TAFTOP
TAF AMD
KTOP 250821Z 2508/2606 00000KT 2SM BR BCFG SKC
      TEMPO 2510/2513 1/2SM FG
     FM251500 06004KT P6SM SKC=



000
FTUS43 KTOP 250500
TAFTOP
TAF
KTOP 250520Z 2506/2606 00000KT 3SM BR SKC
     FM250900 00000KT 2SM BR SKC
      TEMPO 2510/2513 1/2SM FG
     FM251500 06004KT P6SM SKC=



000
FTUS43 KTOP 242300
TAFTOP
TAF
KTOP 242326Z 2500/2524 21003KT P6SM SCT250
     FM250600 27002KT 4SM BR SKC
     FM250900 00000KT 2SM BR SKC
      TEMPO 2509/2512 1/2SM FG
     FM251500 06004KT P6SM SKC=



000
FTUS43 KTOP 241700
TAFTOP
TAF
KTOP 241727Z 2418/2518 20010KT P6SM BKN250
     FM242300 23003KT P6SM FEW250
     FM250700 27002KT 5SM BR SKC
     FM251000 00000KT 2SM BR SKC
     FM251400 01004KT P6SM SKC=



000
FTUS43 KTOP 241300 AAA
TAFTOP
TAF AMD
KTOP 241321Z 2413/2512 19003KT 3SM BR OVC005
      TEMPO 2414/2415 6SM BR SCT005
     FM241500 21010KT P6SM SCT250
     FM242300 23003KT P6SM SKC=



000
FTUS43 KTOP 241100
TAFTOP
TAF
KTOP 241120Z 2412/2512 19003KT 3SM BR SCT006 BKN250
     FM241500 21010KT P6SM SCT250
     FM242300 23003KT P6SM SKC=



000
FTUS43 KTOP 240900 AAB
TAFTOP
TAF AMD
KTOP 240954Z 2410/2506 19003KT 3SM BR SCT006 BKN250
      TEMPO 2410/2411 2SM BR BKN006
     FM241600 21010KT P6SM SCT250
     FM242300 23003KT P6SM SKC=



000
FTUS43 KTOP 240900 AAB
TAFTOP
TAF AMD
KTOP 240954Z 2410/2506 19003KT 3SM BR SCT006 BKN250
      TEMPO 2410/2411 2SM BR BKN006
     FM241600 21010KT P6SM SCT250
     FM242300 23003KT P6SM SKC=



000
FTUS43 KTOP 240700 AAA
TAFTOP
TAF AMD
KTOP 240752Z 2408/2506 19003KT 3SM BR SCT006 BKN250
      TEMPO 2408/2410 2SM BR BKN006
     FM241600 21010KT P6SM SCT250
     FM242300 23003KT P6SM SKC=



000
FTUS43 KTOP 240500
TAFTOP
TAF
KTOP 240520Z 2406/2506 17003KT 3SM BR BKN250
     FM241600 21010KT P6SM SCT250
     FM242300 23003KT P6SM SKC=



000
FTUS43 KTOP 240200 AAB
TAFTOP
TAF AMD
KTOP 240208Z 2402/2424 16002KT P6SM SCT250
     FM240400 17002KT 3SM BR SCT010 SCT250
     FM241500 21010KT P6SM SCT250=



000
FTUS43 KTOP 240200 AAB
TAFTOP
TAF AMD
KTOP 240208Z 2402/2424 16002KT P6SM SCT250
     FM240400 17002KT 3SM BR SCT010 SCT250
     FM241500 21010KT P6SM SCT250=



000
FTUS43 KTOP 240100 AAA
TAFTOP
TAF AMD
KTOP 240102Z 2401/2424 16002KT P6SM SCT250
     FM240200 17002KT 3SM BR SCT010 SCT250
     FM241500 21010KT P6SM SCT250=



000
FTUS43 KTOP 232300
TAFTOP
TAF
KTOP 232320Z 2400/2424 16005KT P6SM BKN250
     FM240600 17003KT 3SM BR SCT010 SCT250
     FM241500 21010KT P6SM SCT250=



000
FTUS43 KTOP 232000 AAA
TAFTOP
TAF AMD
KTOP 232001Z 2320/2418 17007KT P6SM SCT030
     FM240000 18005KT P6SM SCT035
     FM240600 17004KT 5SM BR BKN025=



000
FTUS43 KTOP 231700
TAFTOP
TAF
KTOP 231729Z 2318/2418 21009KT P6SM BKN015 OVC025
     FM232000 22009KT P6SM BKN025
     FM240000 19005KT P6SM BKN035
     FM240600 17004KT 5SM BR BKN025=



000
FTUS43 KTOP 231600 AAD
TAFTOP
TAF AMD
KTOP 231651Z 2317/2412 21007KT P6SM BKN015 OVC025
      TEMPO 2317/2318 SCT018 BKN030
     FM231800 22009KT P6SM BKN030
     FM232300 19005KT P6SM SCT030=



000
FTUS43 KTOP 231600 AAD
TAFTOP
TAF AMD
KTOP 231651Z 2317/2412 21007KT P6SM BKN015 OVC025
      TEMPO 2317/2318 SCT018 BKN030
     FM231800 22009KT P6SM BKN030
     FM232300 19005KT P6SM SCT030=



000
FTUS43 KTOP 231500 AAC
TAFTOP
TAF AMD
KTOP 231548Z 2316/2412 19007KT P6SM SCT009 OVC025
      TEMPO 2316/2317 6SM BR BKN009 BKN015
     FM231700 22009KT P6SM BKN025
     FM232300 19005KT P6SM SCT030=



000
FTUS43 KTOP 231500 AAC
TAFTOP
TAF AMD
KTOP 231548Z 2316/2412 19007KT P6SM SCT009 OVC025
      TEMPO 2316/2317 6SM BR BKN009 BKN015
     FM231700 22009KT P6SM BKN025
     FM232300 19005KT P6SM SCT030=



000
FTUS43 KTOP 231500 AAB
TAFTOP
TAF AMD
KTOP 231501Z 2315/2412 19005KT P6SM SCT025 OVC035
      TEMPO 2315/2317 OVC025
     FM231700 22007KT P6SM BKN025
     FM232300 19005KT P6SM SCT030=



000
FTUS43 KTOP 231200 AAA
TAFTOP
TAF AMD
KTOP 231248Z 2313/2412 19005KT 4SM BR OVC025
     FM231600 22007KT P6SM BKN025
     FM232300 19005KT P6SM SCT030=



000
FTUS43 KTOP 231100
TAFTOP
TAF
KTOP 231120Z 2312/2412 19005KT P6SM OVC025
     FM231600 22007KT P6SM BKN025
     FM232300 19005KT P6SM SCT030=



000
FTUS43 KTOP 230800 AAA
TAFTOP
TAF AMD
KTOP 230828Z 2308/2406 15007KT 4SM -SHRA BR BKN040
     FM231100 19005KT P6SM OVC025
     FM231600 21007KT P6SM BKN025
     FM232200 19005KT P6SM SCT030=



000
FTUS43 KTOP 230500
TAFTOP
TAF
KTOP 230520Z 2306/2406 15007KT 6SM -SHRA BR SCT025 OVC070
     FM231000 19005KT P6SM OVC025
     FM231600 21007KT P6SM BKN025
     FM232200 19005KT P6SM SCT030=



000
FTUS43 KTOP 230200 AAA
TAFTOP
TAF AMD
KTOP 230201Z 2302/2324 15008KT P6SM FEW040 BKN200
     FM230500 16007KT 6SM -SHRA BR SCT025 OVC070
     FM231100 19005KT 6SM BR OVC017
     FM231700 21007KT P6SM BKN025
     FM232200 19005KT P6SM SCT030=



000
FTUS43 KTOP 230200 AAA
TAFTOP
TAF AMD
KTOP 230201Z 2302/2324 15008KT P6SM FEW040 BKN200
     FM230500 16007KT 6SM -SHRA BR SCT025 OVC070
     FM231100 19005KT 6SM BR OVC017
     FM231700 21007KT P6SM BKN025
     FM232200 19005KT P6SM SCT030=



000
FTUS43 KTOP 222300
TAFTOP
TAF
KTOP 222320Z 2300/2324 15008KT P6SM FEW040 BKN200
     FM230400 16007KT 6SM -SHRA BR OVC025
     FM231100 19005KT 6SM BR OVC017
     FM231700 21007KT P6SM BKN025
     FM232200 19005KT P6SM SCT030=



    US Dept of Commerce
    National Oceanic and Atmospheric Administration
    National Weather Service
    1325 East West Highway
    Silver Spring, MD 20910
    Page Author: NWS Internet Services Team
Disclaimer
Information Quality
Credits
Glossary
Privacy Policy
Freedom of Information Act (FOIA)
About Us
Career Opportunities